createdAt,value
2022-12-29T04:04:31.821Z,98.93
2022-12-29T04:07:41.614Z,98.25
2022-12-29T04:10:51.982Z,98.61
2022-12-29T04:14:04.549Z,97.66
2022-12-29T04:17:16.409Z,98.54
2022-12-29T04:20:40.864Z,98.25
2022-12-29T04:23:51.197Z,100.00
2022-12-29T04:27:00.993Z,100.00
2022-12-29T04:30:16.684Z,100.00
2022-12-29T04:33:40.151Z,100.00
2022-12-29T04:36:52.016Z,100.00
2022-12-29T04:40:01.835Z,100.00
2022-12-29T04:43:13.547Z,100.00
2022-12-29T04:46:41.878Z,100.00
2022-12-29T04:49:57.786Z,100.00
2022-12-29T04:53:20.833Z,100.00
2022-12-29T04:56:30.706Z,100.00
2022-12-29T04:59:41.135Z,100.00
2022-12-29T05:02:52.098Z,100.00
2022-12-29T05:06:02.153Z,100.00
2022-12-29T05:09:13.204Z,100.00
2022-12-29T05:12:23.057Z,100.00
2022-12-29T05:15:41.080Z,100.00
2022-12-29T05:18:50.840Z,99.09
2022-12-29T05:22:00.761Z,97.91
2022-12-29T05:25:12.529Z,97.46
2022-12-29T05:28:34.963Z,96.35
2022-12-29T05:31:54.750Z,95.51
2022-12-29T05:35:05.192Z,95.10
2022-12-29T05:38:17.162Z,95.82
2022-12-29T05:41:29.827Z,95.12
2022-12-29T05:44:54.907Z,95.47
2022-12-29T05:48:24.397Z,95.77
2022-12-29T05:51:53.363Z,96.83
2022-12-29T05:55:03.350Z,97.36
2022-12-29T05:58:16.841Z,97.92
2022-12-29T07:18:19.851Z,100.00
2022-12-29T07:21:29.667Z,100.00
2022-12-29T07:24:39.722Z,98.38
2022-12-29T07:27:49.745Z,98.01
2022-12-29T07:31:01.087Z,98.73
2022-12-29T07:34:12.279Z,99.07
2022-12-29T07:37:22.062Z,98.79
2022-12-29T07:40:31.992Z,98.98
2022-12-29T07:43:41.738Z,97.61
2022-12-29T07:47:05.027Z,95.74
2022-12-29T07:50:16.169Z,94.77
2022-12-29T07:53:25.904Z,95.79
2022-12-29T07:56:36.243Z,96.60
2022-12-29T07:59:45.952Z,96.25
2022-12-29T08:02:55.638Z,96.51
2022-12-29T08:06:07.169Z,95.05
2022-12-29T08:09:22.412Z,93.89
2022-12-29T08:12:32.686Z,93.04
2022-12-29T08:15:42.541Z,89.99
2022-12-29T08:18:52.292Z,88.34
2022-12-29T08:22:03.302Z,88.29
2022-12-29T08:25:13.156Z,88.16
2022-12-29T08:28:22.931Z,87.82
2022-12-29T08:31:33.398Z,87.49
2022-12-29T08:34:43.289Z,87.45
2022-12-29T08:37:54.178Z,87.95
2022-12-29T08:41:03.860Z,89.17
2022-12-29T08:44:14.175Z,88.12
2022-12-29T08:47:23.815Z,89.31
2022-12-29T08:50:33.535Z,88.60
2022-12-29T08:53:44.969Z,89.64
2022-12-29T08:56:54.802Z,88.96
2022-12-29T09:00:08.892Z,89.78
2022-12-29T09:03:37.519Z,89.20
2022-12-29T09:06:48.275Z,89.69
2022-12-29T09:09:59.280Z,89.51
2022-12-29T09:13:09.015Z,88.92
2022-12-29T09:16:19.253Z,87.93
2022-12-29T09:19:29.043Z,88.94
2022-12-29T09:22:39.243Z,87.88
2022-12-29T09:25:50.608Z,88.25
2022-12-29T09:29:00.306Z,89.30
2022-12-29T09:32:13.912Z,89.25
2022-12-29T09:35:26.997Z,89.58
2022-12-29T09:38:36.752Z,89.20
2022-12-29T09:41:54.451Z,89.20
2022-12-29T09:45:15.761Z,89.93
2022-12-29T09:48:29.586Z,91.72
2022-12-29T09:51:42.138Z,92.53
2022-12-29T09:55:02.959Z,93.35
2022-12-29T09:58:26.275Z,96.31
2022-12-29T10:01:43.520Z,97.77
2022-12-29T10:04:53.887Z,99.95
2022-12-29T10:08:17.913Z,99.68
2022-12-29T10:11:43.542Z,97.70
2022-12-29T10:15:04.788Z,96.32
2022-12-29T10:18:29.747Z,96.80
2022-12-29T10:21:51.362Z,96.80
2022-12-29T10:25:05.951Z,96.52
2022-12-29T10:28:22.680Z,95.84
2022-12-29T10:31:39.371Z,96.41
2022-12-29T10:34:53.703Z,94.73
2022-12-29T10:38:13.246Z,94.01
2022-12-29T10:41:28.538Z,93.83
2022-12-29T10:44:38.770Z,92.49
2022-12-29T10:47:55.838Z,92.44
2022-12-29T10:51:08.265Z,91.65
2022-12-29T10:54:23.345Z,90.39
2022-12-29T10:57:36.181Z,88.04
2022-12-29T11:00:51.935Z,86.26
2022-12-29T11:04:06.001Z,86.66
2022-12-29T11:07:25.038Z,86.81
2022-12-29T11:10:40.743Z,88.13
2022-12-29T11:13:52.698Z,90.84
2022-12-29T11:17:04.390Z,93.03
2022-12-29T11:24:00.799Z,93.48
2022-12-29T11:27:16.812Z,95.67
2022-12-29T11:30:29.674Z,98.65
2022-12-29T11:33:40.867Z,100.00
2022-12-29T11:36:52.613Z,100.00
2022-12-29T11:40:09.148Z,100.00
2022-12-29T11:43:26.294Z,100.00
2022-12-29T11:46:39.629Z,100.00
2022-12-29T11:49:52.662Z,98.87
2022-12-29T11:53:06.014Z,96.52
2022-12-29T11:56:20.575Z,92.71
2022-12-29T11:59:42.322Z,93.86
2022-12-29T12:02:58.788Z,93.47
2022-12-29T12:06:14.813Z,91.22
2022-12-29T12:09:29.300Z,90.04
2022-12-29T12:12:46.817Z,88.83
2022-12-29T12:16:04.108Z,86.04
2022-12-29T12:19:22.113Z,86.13
2022-12-29T12:22:37.500Z,88.92
2022-12-29T12:25:55.099Z,87.22
2022-12-29T12:29:14.098Z,88.24
2022-12-29T12:32:31.045Z,88.75
2022-12-29T12:35:46.783Z,88.22
2022-12-29T12:39:01.369Z,89.02
2022-12-29T12:42:26.000Z,88.21
2022-12-29T12:45:47.900Z,86.64
2022-12-29T12:49:18.144Z,86.56
2022-12-29T12:52:36.111Z,84.94
2022-12-29T12:55:58.223Z,85.68
2022-12-29T12:59:19.040Z,84.42
2022-12-29T13:02:39.489Z,82.27
2022-12-29T13:06:05.015Z,81.28
2022-12-29T13:09:34.518Z,82.11
2022-12-29T13:12:53.924Z,81.93
2022-12-29T13:16:14.741Z,79.45
2022-12-29T13:19:32.692Z,80.38
2022-12-29T13:22:49.971Z,80.21
2022-12-29T13:26:08.872Z,79.44
2022-12-29T13:29:25.072Z,79.54
2022-12-29T13:32:49.559Z,78.88
2022-12-29T13:36:07.307Z,79.62
2022-12-29T13:39:21.888Z,79.54
2022-12-29T13:42:31.823Z,78.78
2022-12-29T13:45:42.626Z,78.55
2022-12-29T13:48:56.011Z,76.89
2022-12-29T13:52:15.308Z,77.45
2022-12-29T13:55:32.093Z,78.91
2022-12-29T13:58:52.215Z,76.80
2022-12-29T14:02:11.985Z,76.64
2022-12-29T14:05:31.269Z,77.00
2022-12-29T14:08:43.193Z,76.86
2022-12-29T14:11:52.870Z,77.06
2022-12-29T14:15:09.617Z,77.03
2022-12-29T14:18:28.997Z,77.48
2022-12-29T14:21:39.605Z,76.36
2022-12-29T14:24:50.955Z,76.97
2022-12-29T14:28:00.728Z,76.73
2022-12-29T14:31:42.191Z,76.78
2022-12-29T14:34:53.063Z,77.38
2022-12-29T14:38:10.344Z,78.29
2022-12-29T14:41:29.430Z,78.30
2022-12-29T14:44:49.435Z,77.58
2022-12-29T14:48:00.280Z,78.43
2022-12-29T14:51:27.045Z,78.99
2022-12-29T14:54:46.279Z,79.63
2022-12-29T14:58:03.295Z,80.69
2022-12-29T15:01:22.006Z,80.06
2022-12-29T15:04:34.614Z,80.62
2022-12-29T15:07:44.457Z,80.84
2022-12-29T15:10:58.559Z,81.18
2022-12-29T15:14:31.329Z,81.38
2022-12-29T15:17:41.076Z,81.87
2022-12-29T15:20:53.828Z,81.79
2022-12-29T15:24:05.131Z,80.83
2022-12-29T15:27:17.246Z,82.18
2022-12-29T15:30:28.318Z,82.84
2022-12-29T15:33:42.679Z,81.80
2022-12-29T15:36:53.314Z,82.93
2022-12-29T15:40:03.688Z,81.87
2022-12-29T15:43:25.565Z,82.89
2022-12-29T15:46:37.833Z,82.47
2022-12-29T15:49:51.225Z,82.71
2022-12-29T15:53:02.892Z,84.06
2022-12-29T15:56:13.100Z,84.66
2022-12-29T15:59:27.159Z,85.48
2022-12-29T16:02:39.035Z,86.04
2022-12-29T16:05:54.405Z,85.96
2022-12-29T16:09:07.702Z,87.33
2022-12-29T16:12:22.410Z,88.92
2022-12-29T16:15:32.660Z,89.91
2022-12-29T16:18:43.860Z,90.12
2022-12-29T16:21:54.254Z,90.25
2022-12-29T16:25:07.351Z,91.57
2022-12-29T16:28:22.150Z,90.50
2022-12-29T16:31:37.311Z,89.65
2022-12-29T16:34:48.829Z,90.18
2022-12-29T16:38:15.936Z,89.65
2022-12-29T16:41:31.715Z,89.08
2022-12-29T16:44:41.589Z,88.64
2022-12-29T16:48:18.956Z,87.01
2022-12-29T16:51:35.972Z,86.99
2022-12-29T16:54:52.424Z,86.38
2022-12-29T16:58:02.844Z,86.53
2022-12-29T17:01:15.879Z,85.64
2022-12-29T17:04:25.731Z,85.25
2022-12-29T17:07:42.087Z,84.50
2022-12-29T17:11:04.851Z,85.57
2022-12-29T17:14:22.277Z,84.84
2022-12-29T17:17:35.270Z,84.67
2022-12-29T17:20:45.009Z,85.65
2022-12-29T17:23:55.889Z,86.04
2022-12-29T17:27:05.894Z,85.26
2022-12-29T17:30:17.706Z,85.00
2022-12-29T17:33:38.457Z,85.31
2022-12-29T17:36:48.367Z,85.80
2022-12-29T17:39:59.565Z,85.68
2022-12-29T17:43:14.274Z,86.00
2022-12-29T17:46:23.976Z,85.95
2022-12-29T17:49:34.029Z,86.78
2022-12-29T17:52:45.115Z,85.91
2022-12-29T17:55:56.476Z,86.55
2022-12-29T17:59:14.193Z,86.88
2022-12-29T18:02:27.791Z,86.90
2022-12-29T18:05:37.655Z,87.43
2022-12-29T18:08:47.776Z,86.24
2022-12-29T18:11:58.757Z,87.28
2022-12-29T18:15:18.349Z,88.20
2022-12-29T18:18:28.872Z,87.38
2022-12-29T18:21:45.821Z,87.31
2022-12-29T18:24:56.115Z,87.86
2022-12-29T18:28:07.298Z,89.35
2022-12-29T18:31:21.028Z,89.28
2022-12-29T18:34:30.849Z,89.25
2022-12-29T18:37:40.626Z,89.48
2022-12-29T18:40:50.850Z,91.02
2022-12-29T18:44:01.925Z,91.54
2022-12-29T18:47:11.854Z,90.81
2022-12-29T18:50:21.697Z,92.66
2022-12-29T18:53:32.788Z,92.60
2022-12-29T18:56:42.488Z,92.73
2022-12-29T18:59:53.530Z,92.38
2022-12-29T19:03:03.398Z,94.39
2022-12-29T19:06:13.064Z,97.03
2022-12-29T19:09:22.810Z,98.75
2022-12-29T19:12:32.589Z,100.00
2022-12-29T19:15:44.174Z,100.00
2022-12-29T19:19:08.276Z,99.86
2022-12-29T19:22:19.252Z,100.00
2022-12-29T19:25:29.656Z,100.00
2022-12-29T19:28:39.352Z,100.00
2022-12-29T19:31:50.376Z,100.00
2022-12-29T19:35:00.160Z,100.00
2022-12-29T19:38:12.801Z,100.00
2022-12-29T19:41:22.679Z,100.00
2022-12-29T19:44:32.354Z,100.00
2022-12-29T19:47:43.291Z,100.00
2022-12-29T19:50:52.958Z,100.00
2022-12-29T19:54:02.653Z,100.00
2022-12-29T19:57:12.383Z,100.00
2022-12-29T20:00:22.149Z,100.00
2022-12-29T20:03:33.112Z,100.00
2022-12-29T20:06:42.837Z,100.00
2022-12-29T20:09:52.889Z,100.00
2022-12-29T20:13:04.442Z,100.00
2022-12-29T20:16:15.885Z,100.00
2022-12-29T20:19:27.047Z,100.00
2022-12-29T20:22:36.810Z,100.00
2022-12-29T20:25:47.632Z,100.00
2022-12-29T20:28:58.687Z,100.00
2022-12-29T20:32:09.986Z,100.00
2022-12-29T20:35:20.994Z,100.00
2022-12-29T20:38:30.680Z,100.00
2022-12-29T20:41:40.365Z,100.00
2022-12-29T20:44:50.803Z,100.00
2022-12-29T20:48:00.471Z,99.41
2022-12-29T20:51:11.554Z,99.29
2022-12-29T20:54:21.432Z,97.81
2022-12-29T20:57:44.607Z,97.08
